CheckWX is a tool to help pilots better visualize weather data.  It is not intended as a substitute for an official pre-flight weather briefing.

09:41:29 UTC

CYQY METAR
Sydney / J.A. Douglas McCurdy Airport
Sydney, Canada
Current

41 mins ago

CYQY 180900Z 31016G21KT 15SM FEW028 M09/M14 A3037 RMK SC2 SLP290
Observed
Feb-18 @ 09:00 UTC
Wind
  • 310° at 16 KTS
  • Gusting to 21 KTS
Visibility
15 SM
Flight Rules
VFR
Cloud Levels
  • Few at 2,800' AGL
Temperature
-9°C / 16°F
Dewpoint
-14°C / 7°F
Humidity
67%
Altimeter
30.37" Hg
Pressure
1028.42 hPa
Previous

2 hours ago

CYQY 180800Z 31018KT 15SM SCT028 M09/M13 A3033 RMK SC3 PRESRR SLP275
Observed
Feb-18 @ 08:00 UTC
Wind
  • 310° at 18 KTS
Visibility
15 SM
Flight Rules
VFR
Cloud Levels
  • Scattered at 2,800' AGL
Temperature
-9°C / 16°F
Dewpoint
-13°C / 9°F
Humidity
73%
Altimeter
30.33" Hg
Pressure
1027.12 hPa
Previous

3 hours ago

CYQY 180700Z 30008G20KT 15SM BKN027 M08/M13 A3029 RMK SC5 SLP261
Observed
Feb-18 @ 07:00 UTC
Wind
  • 300° at 8 KTS
  • Gusting to 20 KTS
Visibility
15 SM
Flight Rules
MVFR
Cloud Levels
  • Broken at 2,700' AGL
Temperature
-8°C / 18°F
Dewpoint
-13°C / 9°F
Humidity
68%
Altimeter
30.29" Hg
Pressure
1025.72 hPa